Isleham, United Kingdom
Current Conditions -  °F | °C
As of 6:03 AM on Friday 28 Nov 2014 (Local Time) from EGUN Reporting Station
Overcast Overcast  
Wind Chill: 50°   Ceiling: 1500
Heat Index: 50°   Visibility: 6mi
Dew Point: 50°   Wind: 9mph
Humidity: 100%   Direction: 90°E
Pressure: 29.62"   Gusts: NA
Location:  52.34°N, 0.41°E
Report Text: EGUN 280603Z AUTO 09008KT 9999 SCT008 BKN015 OVC021 10/10 A2962 RMK AO2 CIG 008V015 CIG 008 RWY11 $
Loading
Personal Weather Stations






























Interactive Weather Map New forecast layout! Learn more

10-Day Weather Forecast

Advertisements
Track Severe Weather on mobile